AMX1046 MMTG-MMUN
Flight info
| Callsign | AMX1046 |
|---|---|
| Flight time | 1h 17m |
| Altitude | 35000 |
| Route | URVOD1 TGZ V51 SAXAV/N0463F350 DCT PAULE PAULE3G |
| Aircraft | B738/M-SDE2E3FGHIRWXY/LB1 |
Departure
| Time | 2026-04-21 19:58 |
|---|---|
| Airport | Angel Albino Corzo International Airport (MMTG) |
Arrival
| Time | 2026-04-21 21:15 |
|---|---|
| Airport | Cancún International Airport (MMUN) |
| Time | Latitude | Longitude | Altitude | Speed | Heading |
|---|---|---|---|---|---|
| 2026-04-21 19:35 | 16.56044 | -93.01957 | 1513 ft | 0 kts | 49° |
| 2026-04-21 19:42 | 16.56038 | -93.01972 | 1512 ft | 3 kts | 106° |
| 2026-04-21 19:42 | 16.56039 | -93.01977 | 1513 ft | 0 kts | 122° |
| 2026-04-21 19:48 | 16.56028 | -93.01966 | 1514 ft | 4 kts | 147° |
| 2026-04-21 19:48 | 16.56020 | -93.01961 | 1514 ft | 1 kts | 150° |
| 2026-04-21 19:48 | 16.56014 | -93.01958 | 1514 ft | 1 kts | 150° |
| 2026-04-21 19:48 | 16.56010 | -93.01955 | 1514 ft | 1 kts | 150° |
| 2026-04-21 19:49 | 16.56005 | -93.01952 | 1511 ft | 1 kts | 150° |
| 2026-04-21 19:49 | 16.56000 | -93.01950 | 1514 ft | 1 kts | 155° |
| 2026-04-21 19:49 | 16.55995 | -93.01947 | 1514 ft | 1 kts | 156° |
| 2026-04-21 19:49 | 16.55990 | -93.01947 | 1514 ft | 1 kts | 177° |
| 2026-04-21 19:50 | 16.55969 | -93.01959 | 1512 ft | 10 kts | 225° |
| 2026-04-21 19:50 | 16.55952 | -93.02011 | 1514 ft | 0 kts | 265° |
| 2026-04-21 19:50 | 16.55954 | -93.02019 | 1514 ft | 4 kts | 283° |
| 2026-04-21 19:50 | 16.55987 | -93.02071 | 1512 ft | 10 kts | 313° |
| 2026-04-21 19:51 | 16.56048 | -93.02098 | 1512 ft | 10 kts | 351° |
| 2026-04-21 19:51 | 16.56105 | -93.02111 | 1513 ft | 7 kts | 306° |
| 2026-04-21 19:51 | 16.56088 | -93.02157 | 1512 ft | 7 kts | 238° |
| 2026-04-21 19:51 | 16.56056 | -93.02194 | 1511 ft | 7 kts | 211° |
| 2026-04-21 19:52 | 16.56013 | -93.02180 | 1512 ft | 7 kts | 150° |
| 2026-04-21 19:52 | 16.56003 | -93.02173 | 1511 ft | 0 kts | 152° |
| 2026-04-21 19:53 | 16.55980 | -93.02148 | 1512 ft | 21 kts | 121° |
| 2026-04-21 19:53 | 16.55958 | -93.02084 | 1514 ft | 0 kts | 82° |
| 2026-04-21 19:54 | 16.55960 | -93.02075 | 1514 ft | 0 kts | 78° |
| 2026-04-21 19:54 | 16.55944 | -93.02063 | 1514 ft | 7 kts | 167° |
| 2026-04-21 19:54 | 16.55900 | -93.02089 | 1514 ft | 6 kts | 221° |
| 2026-04-21 19:54 | 16.55884 | -93.02107 | 1513 ft | 10 kts | 223° |
| 2026-04-21 19:55 | 16.55822 | -93.02163 | 1512 ft | 5 kts | 195° |
| 2026-04-21 19:55 | 16.55742 | -93.02125 | 1513 ft | 5 kts | 147° |
| 2026-04-21 19:55 | 16.55731 | -93.02116 | 1512 ft | 1 kts | 144° |
| 2026-04-21 19:55 | 16.55669 | -93.02083 | 1512 ft | 19 kts | 153° |
| 2026-04-21 19:56 | 16.55527 | -93.01991 | 1511 ft | 14 kts | 131° |
| 2026-04-21 19:56 | 16.55516 | -93.01978 | 1513 ft | 5 kts | 141° |
| 2026-04-21 19:56 | 16.55457 | -93.01944 | 1513 ft | 1 kts | 150° |
| 2026-04-21 19:57 | 16.55434 | -93.01930 | 1513 ft | 14 kts | 142° |
| 2026-04-21 19:57 | 16.55303 | -93.01896 | 1512 ft | 21 kts | 215° |
| 2026-04-21 19:57 | 16.55271 | -93.02013 | 1512 ft | 19 kts | 310° |
| 2026-04-21 19:57 | 16.55606 | -93.02240 | 1513 ft | 101 kts | 328° |
| 2026-04-21 19:58 | 16.56432 | -93.02761 | 1524 ft | 174 kts | 328° |
| 2026-04-21 19:58 | 16.57581 | -93.03477 | 2035 ft | 208 kts | 330° |
| 2026-04-21 19:58 | 16.58881 | -93.04207 | 2991 ft | 208 kts | 335° |
| 2026-04-21 19:58 | 16.60143 | -93.04870 | 4056 ft | 212 kts | 328° |
| 2026-04-21 19:59 | 16.61439 | -93.05787 | 4316 ft | 239 kts | 325° |
| 2026-04-21 19:59 | 16.62853 | -93.06799 | 4750 ft | 251 kts | 327° |
| 2026-04-21 19:59 | 16.64346 | -93.07777 | 5369 ft | 255 kts | 329° |
| 2026-04-21 19:59 | 16.65882 | -93.08724 | 6047 ft | 257 kts | 330° |
| 2026-04-21 20:00 | 16.67431 | -93.09676 | 6707 ft | 259 kts | 330° |
| 2026-04-21 20:00 | 16.68992 | -93.10642 | 7259 ft | 263 kts | 330° |
| 2026-04-21 20:00 | 16.70574 | -93.11625 | 7811 ft | 267 kts | 330° |
| 2026-04-21 20:00 | 16.72184 | -93.12629 | 8414 ft | 271 kts | 330° |
| 2026-04-21 20:01 | 16.73931 | -93.13521 | 8687 ft | 288 kts | 348° |
| 2026-04-21 20:01 | 16.75920 | -93.13488 | 9299 ft | 294 kts | 16° |
| 2026-04-21 20:01 | 16.77768 | -93.12618 | 10170 ft | 292 kts | 37° |
| 2026-04-21 20:01 | 16.79168 | -93.11025 | 10567 ft | 311 kts | 63° |
| 2026-04-21 20:02 | 16.79926 | -93.08827 | 10776 ft | 334 kts | 78° |
| 2026-04-21 20:02 | 16.80259 | -93.06344 | 11013 ft | 354 kts | 85° |
| 2026-04-21 20:02 | 16.80404 | -93.03746 | 11545 ft | 362 kts | 88° |
| 2026-04-21 20:02 | 16.80362 | -93.01096 | 12206 ft | 366 kts | 94° |
| 2026-04-21 20:03 | 16.80090 | -92.98437 | 12918 ft | 369 kts | 98° |
| 2026-04-21 20:03 | 16.79527 | -92.95804 | 13603 ft | 372 kts | 108° |
| 2026-04-21 20:03 | 16.78495 | -92.93348 | 14229 ft | 377 kts | 117° |
| 2026-04-21 20:03 | 16.77311 | -92.90895 | 14857 ft | 380 kts | 112° |
| 2026-04-21 20:04 | 16.76592 | -92.88242 | 15483 ft | 382 kts | 97° |
| 2026-04-21 20:04 | 16.76593 | -92.85466 | 16072 ft | 385 kts | 81° |
| 2026-04-21 20:04 | 16.77346 | -92.82782 | 16674 ft | 389 kts | 65° |
| 2026-04-21 20:04 | 16.78852 | -92.80426 | 17205 ft | 394 kts | 48° |
| 2026-04-21 20:05 | 16.80803 | -92.78405 | 17748 ft | 397 kts | 44° |
| 2026-04-21 20:05 | 16.82855 | -92.76454 | 18247 ft | 401 kts | 43° |
| 2026-04-21 20:05 | 16.84927 | -92.74488 | 18726 ft | 404 kts | 43° |
| 2026-04-21 20:05 | 16.86967 | -92.72445 | 19184 ft | 409 kts | 45° |
| 2026-04-21 20:06 | 16.88974 | -92.70323 | 19641 ft | 412 kts | 46° |
| 2026-04-21 20:06 | 16.90985 | -92.68181 | 20108 ft | 414 kts | 46° |
| 2026-04-21 20:06 | 16.93022 | -92.66035 | 20521 ft | 418 kts | 45° |
| 2026-04-21 20:06 | 16.95099 | -92.63877 | 20918 ft | 422 kts | 45° |
| 2026-04-21 20:07 | 16.97199 | -92.61714 | 21343 ft | 425 kts | 44° |
| 2026-04-21 20:07 | 16.99317 | -92.59539 | 21740 ft | 428 kts | 44° |
| 2026-04-21 20:07 | 17.00722 | -92.58096 | 22017 ft | 430 kts | 44° |
| 2026-04-21 20:07 | 17.03581 | -92.55145 | 22555 ft | 433 kts | 46° |
| 2026-04-21 20:08 | 17.05510 | -92.52719 | 22921 ft | 436 kts | 58° |
| 2026-04-21 20:08 | 17.06894 | -92.49926 | 23308 ft | 438 kts | 64° |
| 2026-04-21 20:08 | 17.08182 | -92.47027 | 23634 ft | 442 kts | 64° |
| 2026-04-21 20:08 | 17.09606 | -92.44162 | 23906 ft | 446 kts | 60° |
| 2026-04-21 20:09 | 17.11221 | -92.41380 | 24183 ft | 449 kts | 57° |
| 2026-04-21 20:09 | 17.12918 | -92.38624 | 24509 ft | 452 kts | 57° |
| 2026-04-21 20:09 | 17.14624 | -92.35854 | 24829 ft | 454 kts | 57° |
| 2026-04-21 20:09 | 17.16317 | -92.33065 | 25094 ft | 457 kts | 57° |
| 2026-04-21 20:10 | 17.18025 | -92.30253 | 25395 ft | 460 kts | 57° |
| 2026-04-21 20:10 | 17.19744 | -92.27424 | 25708 ft | 462 kts | 57° |
| 2026-04-21 20:10 | 17.21443 | -92.24626 | 25948 ft | 464 kts | 57° |
| 2026-04-21 20:10 | 17.23184 | -92.21764 | 26196 ft | 468 kts | 57° |
| 2026-04-21 20:11 | 17.24928 | -92.18901 | 26491 ft | 469 kts | 57° |
| 2026-04-21 20:11 | 17.26686 | -92.16015 | 26739 ft | 472 kts | 57° |
| 2026-04-21 20:11 | 17.28450 | -92.13120 | 26948 ft | 476 kts | 57° |
| 2026-04-21 20:11 | 17.30233 | -92.10196 | 27234 ft | 477 kts | 57° |
| 2026-04-21 20:12 | 17.32024 | -92.07262 | 27497 ft | 479 kts | 57° |
| 2026-04-21 20:12 | 17.33821 | -92.04321 | 27760 ft | 481 kts | 57° |
| 2026-04-21 20:12 | 17.35019 | -92.02363 | 27922 ft | 483 kts | 57° |
| 2026-04-21 20:12 | 17.37397 | -91.98478 | 28203 ft | 486 kts | 57° |
| 2026-04-21 20:13 | 17.39230 | -91.95487 | 28396 ft | 489 kts | 57° |
| 2026-04-21 20:13 | 17.41071 | -91.92484 | 28616 ft | 492 kts | 57° |
| 2026-04-21 20:13 | 17.42896 | -91.89508 | 28860 ft | 493 kts | 57° |
| 2026-04-21 20:13 | 17.44755 | -91.86482 | 29061 ft | 496 kts | 57° |
| 2026-04-21 20:14 | 17.46626 | -91.83438 | 29268 ft | 498 kts | 57° |
| 2026-04-21 20:14 | 17.48502 | -91.80390 | 29551 ft | 498 kts | 57° |
| 2026-04-21 20:14 | 17.50378 | -91.77347 | 29885 ft | 497 kts | 57° |
| 2026-04-21 20:14 | 17.52255 | -91.74307 | 30221 ft | 496 kts | 57° |
| 2026-04-21 20:15 | 17.54133 | -91.71268 | 30509 ft | 496 kts | 57° |
| 2026-04-21 20:15 | 17.56009 | -91.68231 | 30821 ft | 496 kts | 57° |
| 2026-04-21 20:15 | 17.57885 | -91.65188 | 31125 ft | 496 kts | 57° |
| 2026-04-21 20:15 | 17.59732 | -91.62189 | 31462 ft | 495 kts | 57° |
| 2026-04-21 20:16 | 17.61593 | -91.59160 | 31796 ft | 494 kts | 57° |
| 2026-04-21 20:16 | 17.63452 | -91.56129 | 32094 ft | 494 kts | 57° |
| 2026-04-21 20:16 | 17.65308 | -91.53094 | 32424 ft | 493 kts | 57° |
| 2026-04-21 20:16 | 17.67159 | -91.50063 | 32733 ft | 493 kts | 57° |
| 2026-04-21 20:17 | 17.69006 | -91.47031 | 33052 ft | 493 kts | 57° |
| 2026-04-21 20:17 | 17.70848 | -91.43998 | 33383 ft | 492 kts | 57° |
| 2026-04-21 20:17 | 17.72682 | -91.40971 | 33666 ft | 492 kts | 57° |
| 2026-04-21 20:17 | 17.74515 | -91.37937 | 33963 ft | 492 kts | 57° |
| 2026-04-21 20:18 | 17.75727 | -91.35926 | 34147 ft | 491 kts | 57° |
| 2026-04-21 20:18 | 17.78166 | -91.31871 | 34594 ft | 490 kts | 57° |
| 2026-04-21 20:18 | 17.79956 | -91.28887 | 34921 ft | 488 kts | 57° |
| 2026-04-21 20:19 | 17.83589 | -91.22813 | 35020 ft | 494 kts | 57° |
| 2026-04-21 20:19 | 17.87228 | -91.16711 | 35021 ft | 491 kts | 57° |
| 2026-04-21 20:20 | 17.90826 | -91.10671 | 35025 ft | 486 kts | 57° |
| 2026-04-21 20:20 | 17.94408 | -91.04651 | 35030 ft | 486 kts | 57° |
| 2026-04-21 20:21 | 17.97327 | -90.99738 | 35028 ft | 486 kts | 57° |
| 2026-04-21 20:21 | 18.00900 | -90.93717 | 35030 ft | 486 kts | 57° |
| 2026-04-21 20:22 | 18.04464 | -90.87675 | 35036 ft | 487 kts | 57° |
| 2026-04-21 20:22 | 18.09815 | -90.78545 | 35041 ft | 490 kts | 57° |
| 2026-04-21 20:23 | 18.13392 | -90.72420 | 35044 ft | 492 kts | 57° |
| 2026-04-21 20:23 | 18.16971 | -90.66281 | 35038 ft | 493 kts | 57° |
| 2026-04-21 20:24 | 18.20536 | -90.60157 | 35038 ft | 494 kts | 57° |
| 2026-04-21 20:24 | 18.24129 | -90.53981 | 35039 ft | 495 kts | 57° |
| 2026-04-21 20:25 | 18.27726 | -90.47802 | 35032 ft | 495 kts | 57° |
| 2026-04-21 20:25 | 18.31322 | -90.41628 | 35043 ft | 494 kts | 57° |
| 2026-04-21 20:26 | 18.34915 | -90.35458 | 35043 ft | 493 kts | 57° |
| 2026-04-21 20:26 | 18.38475 | -90.29336 | 35044 ft | 492 kts | 57° |
| 2026-04-21 20:27 | 18.42040 | -90.23199 | 35034 ft | 491 kts | 57° |
| 2026-04-21 20:27 | 18.45605 | -90.17058 | 35048 ft | 490 kts | 57° |
| 2026-04-21 20:28 | 18.49144 | -90.10961 | 35046 ft | 489 kts | 57° |
| 2026-04-21 20:28 | 18.52507 | -90.04730 | 35046 ft | 489 kts | 62° |
| 2026-04-21 20:29 | 18.55445 | -89.98369 | 35039 ft | 490 kts | 64° |
| 2026-04-21 20:29 | 18.58336 | -89.91866 | 35037 ft | 490 kts | 63° |
| 2026-04-21 20:30 | 18.61399 | -89.85433 | 35047 ft | 490 kts | 61° |
| 2026-04-21 20:30 | 18.64577 | -89.79064 | 35057 ft | 490 kts | 60° |
| 2026-04-21 20:31 | 18.67787 | -89.72699 | 35053 ft | 492 kts | 60° |
| 2026-04-21 20:31 | 18.70972 | -89.66364 | 35058 ft | 493 kts | 60° |
| 2026-04-21 20:32 | 18.74180 | -89.59956 | 35056 ft | 494 kts | 61° |
| 2026-04-21 20:32 | 18.77392 | -89.53517 | 35052 ft | 495 kts | 61° |
| 2026-04-21 20:33 | 18.80578 | -89.47111 | 35063 ft | 496 kts | 61° |
| 2026-04-21 20:33 | 18.83785 | -89.40666 | 35062 ft | 496 kts | 61° |
| 2026-04-21 20:34 | 18.86999 | -89.34210 | 35068 ft | 497 kts | 61° |
| 2026-04-21 20:34 | 18.90214 | -89.27744 | 35062 ft | 497 kts | 61° |
| 2026-04-21 20:35 | 18.93432 | -89.21261 | 35063 ft | 498 kts | 61° |
| 2026-04-21 20:35 | 18.96624 | -89.14825 | 35063 ft | 497 kts | 61° |
| 2026-04-21 20:36 | 18.99834 | -89.08345 | 35066 ft | 497 kts | 61° |
| 2026-04-21 20:36 | 19.03030 | -89.01885 | 35061 ft | 496 kts | 61° |
| 2026-04-21 20:37 | 19.06181 | -88.95508 | 35062 ft | 496 kts | 61° |
| 2026-04-21 20:37 | 19.09375 | -88.89037 | 35064 ft | 497 kts | 61° |
| 2026-04-21 20:38 | 19.12572 | -88.82555 | 35062 ft | 497 kts | 61° |
| 2026-04-21 20:38 | 19.15765 | -88.76074 | 35062 ft | 497 kts | 61° |
| 2026-04-21 20:39 | 19.18960 | -88.69581 | 35065 ft | 498 kts | 61° |
| 2026-04-21 20:39 | 19.22137 | -88.63117 | 35072 ft | 498 kts | 61° |
| 2026-04-21 20:40 | 19.25332 | -88.56613 | 35063 ft | 498 kts | 61° |
| 2026-04-21 20:40 | 19.28523 | -88.50106 | 35070 ft | 498 kts | 61° |
| 2026-04-21 20:41 | 19.31715 | -88.43587 | 35069 ft | 497 kts | 61° |
| 2026-04-21 20:41 | 19.34875 | -88.37134 | 35075 ft | 497 kts | 60° |
| 2026-04-21 20:42 | 19.38062 | -88.30614 | 35074 ft | 498 kts | 60° |
| 2026-04-21 20:42 | 19.41245 | -88.24095 | 35076 ft | 498 kts | 61° |
| 2026-04-21 20:43 | 19.44437 | -88.17554 | 35075 ft | 499 kts | 60° |
| 2026-04-21 20:43 | 19.47606 | -88.11050 | 35076 ft | 500 kts | 61° |
| 2026-04-21 20:44 | 19.50803 | -88.04480 | 35068 ft | 501 kts | 60° |
| 2026-04-21 20:44 | 19.53946 | -87.98010 | 35078 ft | 502 kts | 60° |
| 2026-04-21 20:45 | 19.57140 | -87.91432 | 34583 ft | 509 kts | 60° |
| 2026-04-21 20:45 | 19.58760 | -87.88096 | 33959 ft | 508 kts | 61° |
| 2026-04-21 20:45 | 19.60378 | -87.84758 | 33279 ft | 508 kts | 61° |
| 2026-04-21 20:46 | 19.61999 | -87.81413 | 32574 ft | 508 kts | 61° |
| 2026-04-21 20:46 | 19.63619 | -87.78066 | 31835 ft | 509 kts | 61° |
| 2026-04-21 20:46 | 19.65215 | -87.74770 | 31247 ft | 507 kts | 61° |
| 2026-04-21 20:46 | 19.66816 | -87.71455 | 30722 ft | 502 kts | 61° |
| 2026-04-21 20:47 | 19.68406 | -87.68162 | 30192 ft | 498 kts | 61° |
| 2026-04-21 20:47 | 19.69979 | -87.64907 | 29668 ft | 493 kts | 61° |
| 2026-04-21 20:47 | 19.71535 | -87.61685 | 29138 ft | 489 kts | 61° |
| 2026-04-21 20:47 | 19.73081 | -87.58484 | 28604 ft | 484 kts | 61° |
| 2026-04-21 20:48 | 19.74607 | -87.55319 | 28076 ft | 480 kts | 61° |
| 2026-04-21 20:48 | 19.76118 | -87.52184 | 27552 ft | 475 kts | 61° |
| 2026-04-21 20:48 | 19.77614 | -87.49080 | 27033 ft | 470 kts | 61° |
| 2026-04-21 20:48 | 19.79095 | -87.46005 | 26512 ft | 465 kts | 61° |
| 2026-04-21 20:49 | 19.80567 | -87.42971 | 26179 ft | 456 kts | 59° |
| 2026-04-21 20:49 | 19.82365 | -87.40284 | 25881 ft | 440 kts | 40° |
| 2026-04-21 20:49 | 19.84831 | -87.38448 | 25502 ft | 428 kts | 27° |
| 2026-04-21 20:49 | 19.87409 | -87.36906 | 25078 ft | 423 kts | 27° |
| 2026-04-21 20:50 | 19.89906 | -87.35290 | 24664 ft | 419 kts | 31° |
| 2026-04-21 20:50 | 19.92300 | -87.33550 | 24258 ft | 414 kts | 33° |
| 2026-04-21 20:50 | 19.94632 | -87.31784 | 23855 ft | 409 kts | 33° |
| 2026-04-21 20:50 | 19.96909 | -87.30062 | 23460 ft | 405 kts | 33° |
| 2026-04-21 20:51 | 19.99230 | -87.28333 | 23060 ft | 400 kts | 33° |
| 2026-04-21 20:51 | 20.01485 | -87.26679 | 22675 ft | 396 kts | 32° |
| 2026-04-21 20:51 | 20.03752 | -87.25035 | 22293 ft | 393 kts | 32° |
| 2026-04-21 20:51 | 20.06007 | -87.23410 | 21908 ft | 390 kts | 32° |
| 2026-04-21 20:52 | 20.08261 | -87.21792 | 21533 ft | 391 kts | 32° |
| 2026-04-21 20:52 | 20.10527 | -87.20168 | 21148 ft | 393 kts | 32° |
| 2026-04-21 20:52 | 20.12794 | -87.18544 | 20764 ft | 392 kts | 32° |
| 2026-04-21 20:52 | 20.15051 | -87.16923 | 20379 ft | 389 kts | 32° |
| 2026-04-21 20:53 | 20.17289 | -87.15315 | 20005 ft | 387 kts | 32° |
| 2026-04-21 20:53 | 20.19509 | -87.13717 | 19619 ft | 384 kts | 32° |
| 2026-04-21 20:53 | 20.21714 | -87.12132 | 19255 ft | 381 kts | 32° |
| 2026-04-21 20:53 | 20.23907 | -87.10554 | 18881 ft | 380 kts | 32° |
| 2026-04-21 20:54 | 20.26077 | -87.08994 | 18429 ft | 380 kts | 32° |
| 2026-04-21 20:54 | 20.28263 | -87.07421 | 18056 ft | 378 kts | 33° |
| 2026-04-21 20:54 | 20.30432 | -87.05859 | 17677 ft | 375 kts | 33° |
| 2026-04-21 20:54 | 20.32582 | -87.04310 | 17304 ft | 372 kts | 33° |
| 2026-04-21 20:55 | 20.34718 | -87.02771 | 16940 ft | 369 kts | 33° |
| 2026-04-21 20:55 | 20.36838 | -87.01243 | 16580 ft | 366 kts | 33° |
| 2026-04-21 20:55 | 20.38883 | -86.99769 | 16235 ft | 365 kts | 33° |
| 2026-04-21 20:55 | 20.40990 | -86.98248 | 15872 ft | 364 kts | 33° |
| 2026-04-21 20:56 | 20.43081 | -86.96738 | 15499 ft | 362 kts | 33° |
| 2026-04-21 20:56 | 20.45156 | -86.95240 | 15149 ft | 358 kts | 33° |
| 2026-04-21 20:56 | 20.47201 | -86.93763 | 14799 ft | 353 kts | 33° |
| 2026-04-21 20:56 | 20.49221 | -86.92304 | 14441 ft | 348 kts | 33° |
| 2026-04-21 20:57 | 20.51195 | -86.90887 | 14109 ft | 344 kts | 33° |
| 2026-04-21 20:57 | 20.53208 | -86.89544 | 13783 ft | 339 kts | 30° |
| 2026-04-21 20:57 | 20.55240 | -86.88294 | 13455 ft | 334 kts | 29° |
| 2026-04-21 20:57 | 20.57259 | -86.87074 | 13116 ft | 331 kts | 29° |
| 2026-04-21 20:58 | 20.59245 | -86.85858 | 12799 ft | 327 kts | 30° |
| 2026-04-21 20:58 | 20.61185 | -86.84650 | 12482 ft | 317 kts | 30° |
| 2026-04-21 20:58 | 20.63056 | -86.83475 | 12168 ft | 306 kts | 31° |
| 2026-04-21 20:58 | 20.64861 | -86.82339 | 11856 ft | 297 kts | 31° |
| 2026-04-21 20:59 | 20.66628 | -86.81227 | 11564 ft | 293 kts | 31° |
| 2026-04-21 20:59 | 20.68373 | -86.80128 | 11286 ft | 291 kts | 31° |
| 2026-04-21 20:59 | 20.70133 | -86.79019 | 11001 ft | 297 kts | 31° |
| 2026-04-21 20:59 | 20.71929 | -86.77887 | 10675 ft | 302 kts | 31° |
| 2026-04-21 21:00 | 20.73743 | -86.76744 | 10368 ft | 302 kts | 31° |
| 2026-04-21 21:00 | 20.75548 | -86.75607 | 10050 ft | 301 kts | 31° |
| 2026-04-21 21:00 | 20.77302 | -86.74500 | 9916 ft | 288 kts | 31° |
| 2026-04-21 21:00 | 20.79023 | -86.73416 | 9515 ft | 283 kts | 30° |
| 2026-04-21 21:01 | 20.80791 | -86.72605 | 9188 ft | 282 kts | 8° |
| 2026-04-21 21:01 | 20.82718 | -86.72824 | 8921 ft | 280 kts | 339° |
| 2026-04-21 21:01 | 20.84362 | -86.73918 | 8627 ft | 279 kts | 317° |
| 2026-04-21 21:01 | 20.85576 | -86.75535 | 8317 ft | 279 kts | 304° |
| 2026-04-21 21:02 | 20.86615 | -86.77289 | 8022 ft | 279 kts | 302° |
| 2026-04-21 21:02 | 20.87648 | -86.79038 | 7726 ft | 278 kts | 304° |
| 2026-04-21 21:02 | 20.88725 | -86.80751 | 7432 ft | 277 kts | 304° |
| 2026-04-21 21:02 | 20.89808 | -86.82452 | 7123 ft | 276 kts | 304° |
| 2026-04-21 21:03 | 20.90874 | -86.84135 | 6837 ft | 276 kts | 304° |
| 2026-04-21 21:03 | 20.91943 | -86.85833 | 6549 ft | 275 kts | 304° |
| 2026-04-21 21:03 | 20.93006 | -86.87525 | 6254 ft | 274 kts | 304° |
| 2026-04-21 21:03 | 20.94072 | -86.89223 | 5951 ft | 275 kts | 304° |
| 2026-04-21 21:04 | 20.95136 | -86.90922 | 5669 ft | 274 kts | 304° |
| 2026-04-21 21:04 | 20.96197 | -86.92617 | 5386 ft | 274 kts | 304° |
| 2026-04-21 21:04 | 20.97258 | -86.94312 | 5083 ft | 274 kts | 304° |
| 2026-04-21 21:04 | 20.98312 | -86.96002 | 4782 ft | 273 kts | 304° |
| 2026-04-21 21:05 | 20.99367 | -86.97690 | 4498 ft | 272 kts | 305° |
| 2026-04-21 21:05 | 21.00416 | -86.99363 | 4211 ft | 271 kts | 305° |
| 2026-04-21 21:05 | 21.01463 | -87.01035 | 3926 ft | 270 kts | 305° |
| 2026-04-21 21:05 | 21.02505 | -87.02702 | 3635 ft | 269 kts | 305° |
| 2026-04-21 21:06 | 21.03547 | -87.04370 | 3348 ft | 268 kts | 305° |
| 2026-04-21 21:06 | 21.04233 | -87.05469 | 3164 ft | 268 kts | 305° |
| 2026-04-21 21:06 | 21.05607 | -87.07663 | 2781 ft | 267 kts | 306° |
| 2026-04-21 21:06 | 21.06635 | -87.09310 | 2490 ft | 266 kts | 305° |
| 2026-04-21 21:07 | 21.07660 | -87.10954 | 2212 ft | 264 kts | 305° |
| 2026-04-21 21:07 | 21.08678 | -87.12582 | 2033 ft | 260 kts | 305° |
| 2026-04-21 21:07 | 21.09346 | -87.13654 | 1989 ft | 253 kts | 305° |
| 2026-04-21 21:07 | 21.10290 | -87.15171 | 1972 ft | 242 kts | 305° |
| 2026-04-21 21:08 | 21.11204 | -87.16638 | 1960 ft | 230 kts | 306° |
| 2026-04-21 21:08 | 21.12073 | -87.18034 | 1968 ft | 222 kts | 306° |
| 2026-04-21 21:08 | 21.13003 | -87.19337 | 1965 ft | 219 kts | 326° |
| 2026-04-21 21:08 | 21.14395 | -87.19873 | 1992 ft | 213 kts | 358° |
| 2026-04-21 21:09 | 21.15824 | -87.19566 | 1990 ft | 210 kts | 31° |
| 2026-04-21 21:09 | 21.16842 | -87.18485 | 1982 ft | 208 kts | 64° |
| 2026-04-21 21:09 | 21.17154 | -87.16983 | 1980 ft | 209 kts | 92° |
| 2026-04-21 21:09 | 21.16961 | -87.15449 | 1992 ft | 212 kts | 98° |
| 2026-04-21 21:10 | 21.16738 | -87.13880 | 1977 ft | 214 kts | 97° |
| 2026-04-21 21:10 | 21.16535 | -87.12304 | 1981 ft | 214 kts | 97° |
| 2026-04-21 21:10 | 21.16154 | -87.10764 | 1978 ft | 216 kts | 114° |
| 2026-04-21 21:10 | 21.15434 | -87.09350 | 1978 ft | 214 kts | 118° |
| 2026-04-21 21:11 | 21.14692 | -87.07978 | 1967 ft | 211 kts | 117° |
| 2026-04-21 21:11 | 21.13977 | -87.06611 | 1976 ft | 210 kts | 116° |
| 2026-04-21 21:11 | 21.13285 | -87.05251 | 1985 ft | 210 kts | 116° |
| 2026-04-21 21:11 | 21.12586 | -87.03871 | 1987 ft | 211 kts | 116° |
| 2026-04-21 21:12 | 21.11890 | -87.02482 | 1982 ft | 212 kts | 116° |
| 2026-04-21 21:12 | 21.11161 | -87.01041 | 1511 ft | 228 kts | 120° |
| 2026-04-21 21:12 | 21.10163 | -86.99746 | 1383 ft | 221 kts | 128° |
| 2026-04-21 21:12 | 21.09252 | -86.98457 | 1170 ft | 217 kts | 122° |
| 2026-04-21 21:13 | 21.08510 | -86.97035 | 885 ft | 217 kts | 112° |
| 2026-04-21 21:13 | 21.08024 | -86.95555 | 752 ft | 204 kts | 107° |
| 2026-04-21 21:13 | 21.07617 | -86.94167 | 616 ft | 190 kts | 110° |
| 2026-04-21 21:13 | 21.07044 | -86.92907 | 671 ft | 183 kts | 121° |
| 2026-04-21 21:14 | 21.06330 | -86.91835 | 683 ft | 171 kts | 127° |
| 2026-04-21 21:14 | 21.05631 | -86.90868 | 521 ft | 154 kts | 123° |
| 2026-04-21 21:14 | 21.05060 | -86.89966 | 371 ft | 138 kts | 122° |
| 2026-04-21 21:14 | 21.04557 | -86.89132 | 118 ft | 132 kts | 123° |
| 2026-04-21 21:15 | 21.04088 | -86.88383 | 38 ft | 106 kts | 124° |
| 2026-04-21 21:15 | 21.03773 | -86.87889 | 38 ft | 56 kts | 124° |
| 2026-04-21 21:15 | 21.03623 | -86.87648 | 38 ft | 34 kts | 123° |
| 2026-04-21 21:15 | 21.03497 | -86.87441 | 39 ft | 32 kts | 123° |
| 2026-04-21 21:16 | 21.03418 | -86.87311 | 38 ft | 3 kts | 121° |
| 2026-04-21 21:16 | 21.03400 | -86.87265 | 37 ft | 8 kts | 103° |
| 2026-04-21 21:16 | 21.03406 | -86.87211 | 39 ft | 7 kts | 59° |
| 2026-04-21 21:16 | 21.03435 | -86.87184 | 39 ft | 0 kts | 40° |
| 2026-04-21 21:17 | 21.03435 | -86.87183 | 39 ft | 1 kts | 40° |
| 2026-04-21 21:17 | 21.03478 | -86.87152 | 41 ft | 7 kts | 34° |
| 2026-04-21 21:17 | 21.03509 | -86.87130 | 39 ft | 0 kts | 33° |
| 2026-04-21 21:19 | 21.03514 | -86.87127 | 41 ft | 4 kts | 30° |
| 2026-04-21 21:20 | 21.03553 | -86.87123 | 41 ft | 6 kts | 354° |
| 2026-04-21 21:20 | 21.03590 | -86.87113 | 41 ft | 4 kts | 29° |
| 2026-04-21 21:20 | 21.03614 | -86.87097 | 42 ft | 4 kts | 32° |
| 2026-04-21 21:20 | 21.03638 | -86.87081 | 42 ft | 4 kts | 33° |
| 2026-04-21 21:21 | 21.03646 | -86.87074 | 42 ft | 1 kts | 34° |
| 2026-04-21 21:21 | 21.03652 | -86.87071 | 41 ft | 0 kts | 33° |